Time;durP1;ratioP1;P1;durP2;ratioP2;P2;SDS_P1;SDS_P2;PMS_P1;PMS_P2;Temp;Humidity;BMP_temperature;BMP_pressure;BME280_temperature;BME280_humidity;BME280_pressure;Samples;Min_cycle;Max_cycle;Signal;HPM_P1;HPM_P2
2023/10/12 00:01:14;;;;;;;11.60;2.23;;;;;;;14.86;100.00;100799.50;6200680;28;20213;-73
2023/10/12 00:04:39;;;;;;;3.40;2.03;;;;;;;14.62;100.00;100808.44;6178430;28;20229;-73
2023/10/12 00:08:07;;;;;;;5.43;2.13;;;;;;;14.65;100.00;100821.66;6210154;28;20230;-74
2023/10/12 00:11:37;;;;;;;8.87;2.73;;;;;;;14.56;100.00;100825.34;6203692;28;20517;-74
2023/10/12 00:15:02;;;;;;;8.63;2.40;;;;;;;14.59;100.00;100824.16;6196047;28;20240;-73
2023/10/12 00:18:23;;;;;;;6.37;2.30;;;;;;;14.58;100.00;100803.50;6197601;28;20340;-72
2023/10/12 00:21:46;;;;;;;4.00;1.50;;;;;;;14.63;100.00;100814.69;6208102;28;20226;-73
2023/10/12 00:25:07;;;;;;;7.10;1.93;;;;;;;14.71;100.00;100814.72;6202825;28;20866;-74
2023/10/12 00:28:38;;;;;;;3.70;2.33;;;;;;;14.74;100.00;100806.25;6217568;28;20759;-75
2023/10/12 00:32:02;;;;;;;8.17;2.47;;;;;;;14.64;100.00;100805.53;6205600;28;20233;-73
2023/10/12 00:35:23;;;;;;;4.70;2.13;;;;;;;14.64;100.00;100809.13;6209730;28;20233;-72
2023/10/12 00:38:45;;;;;;;9.10;2.67;;;;;;;14.68;100.00;100812.34;6186952;28;20242;-73
2023/10/12 00:42:06;;;;;;;7.50;2.60;;;;;;;14.60;100.00;100812.31;6192614;28;21109;-73
2023/10/12 00:45:29;;;;;;;11.10;2.37;;;;;;;14.47;100.00;100809.19;6217493;28;20221;-74
2023/10/12 00:48:57;;;;;;;6.30;2.63;;;;;;;14.40;100.00;100811.72;6208291;28;20225;-73
2023/10/12 00:52:26;;;;;;;6.10;2.67;;;;;;;14.41;100.00;100825.09;6214421;28;20228;-73
2023/10/12 00:55:48;;;;;;;8.00;2.80;;;;;;;14.57;100.00;100824.34;6178959;28;20245;-73
2023/10/12 00:59:11;;;;;;;3.17;2.83;;;;;;;14.53;100.00;100841.94;6183405;28;21821;-74
2023/10/12 01:02:39;;;;;;;2.87;1.80;;;;;;;14.37;100.00;100840.00;6190698;28;20545;-73
2023/10/12 01:06:20;;;;;;;10.23;3.00;;;;;;;14.26;100.00;100861.09;6203343;28;20228;-74
2023/10/12 01:09:43;;;;;;;3.87;2.40;;;;;;;14.16;100.00;100838.66;6198503;28;20331;-74
2023/10/12 01:13:05;;;;;;;8.97;2.50;;;;;;;14.23;100.00;100831.56;6196120;28;20241;-74
2023/10/12 01:16:36;;;;;;;3.70;2.00;;;;;;;14.10;100.00;100831.19;6183378;28;20237;-74
2023/10/12 01:19:57;;;;;;;7.57;3.50;;;;;;;14.11;100.00;100847.28;6190098;28;20589;-73
2023/10/12 01:23:19;;;;;;;5.33;2.43;;;;;;;13.87;100.00;100838.13;6198595;28;20229;-73
2023/10/12 01:26:43;;;;;;;8.03;2.50;;;;;;;13.73;100.00;100841.38;6202312;28;20229;-73
2023/10/12 01:30:22;;;;;;;3.03;1.83;;;;;;;13.85;100.00;100837.44;6198070;28;20252;-73
2023/10/12 01:33:44;;;;;;;6.07;2.43;;;;;;;13.79;100.00;100844.31;6199286;28;20722;-74
2023/10/12 01:37:11;;;;;;;7.00;2.67;;;;;;;13.68;100.00;100844.59;6198139;28;20236;-73
2023/10/12 01:40:44;;;;;;;5.53;1.73;;;;;;;13.79;100.00;100844.31;6173531;28;20230;-73
2023/10/12 01:44:10;;;;;;;8.03;2.37;;;;;;;13.83;100.00;100842.16;6194681;28;20244;-73
2023/10/12 01:47:36;;;;;;;6.20;2.43;;;;;;;13.73;100.00;100838.69;6199646;28;20665;-73
2023/10/12 01:50:57;;;;;;;7.97;2.70;;;;;;;13.71;100.00;100841.56;6196140;28;20229;-73
2023/10/12 01:54:24;;;;;;;4.33;1.90;;;;;;;13.78;100.00;100855.31;6208963;28;20736;-73
2023/10/12 01:57:52;;;;;;;6.80;2.80;;;;;;;13.69;100.00;100853.53;6178855;28;20388;-73
2023/10/12 02:01:18;;;;;;;5.93;2.77;;;;;;;13.78;100.00;100858.03;6202246;28;20244;-73
2023/10/12 02:04:40;;;;;;;3.57;2.30;;;;;;;13.64;100.00;100864.88;6201932;28;20241;-73
2023/10/12 02:08:05;;;;;;;4.00;2.13;;;;;;;13.59;100.00;100867.19;6191585;28;20241;-74
2023/10/12 02:11:37;;;;;;;4.60;2.40;;;;;;;13.47;100.00;100860.31;6189886;28;20294;-73
2023/10/12 02:15:01;;;;;;;6.80;2.53;;;;;;;13.58;100.00;100865.47;6191755;28;20230;-73
2023/10/12 02:18:23;;;;;;;4.37;2.30;;;;;;;13.49;100.00;100861.00;6198283;28;20237;-74
2023/10/12 02:21:43;;;;;;;6.57;3.20;;;;;;;13.51;100.00;100867.13;6198648;28;20233;-73
2023/10/12 02:25:18;;;;;;;5.13;2.10;;;;;;;13.55;100.00;100879.34;6173953;28;20237;-73
2023/10/12 02:28:40;;;;;;;4.37;2.13;;;;;;;13.53;100.00;100879.50;6192442;28;20603;-72
2023/10/12 02:32:16;;;;;;;7.63;2.60;;;;;;;13.55;100.00;100876.63;6198785;28;20229;-73
2023/10/12 02:35:37;;;;;;;3.67;2.00;;;;;;;13.59;100.00;100878.88;6198516;28;20622;-73
2023/10/12 02:39:10;;;;;;;4.07;2.23;;;;;;;13.52;100.00;100890.47;6187313;28;20229;-73
2023/10/12 02:42:42;;;;;;;7.27;2.33;;;;;;;13.33;100.00;100882.53;6172061;28;20238;-73
2023/10/12 02:46:06;;;;;;;6.30;2.27;;;;;;;13.42;100.00;100892.41;6182259;28;20233;-72
2023/10/12 02:49:38;;;;;;;6.50;3.27;;;;;;;13.49;100.00;100894.38;6198639;28;20241;-73
2023/10/12 02:53:08;;;;;;;5.80;2.10;;;;;;;13.56;100.00;100894.56;6199218;28;20233;-73
2023/10/12 02:56:31;;;;;;;5.53;2.40;;;;;;;13.50;100.00;100903.31;6193553;28;20233;-73
2023/10/12 02:59:57;;;;;;;6.10;2.77;;;;;;;13.28;100.00;100901.94;6196411;28;20338;-73
2023/10/12 03:03:24;;;;;;;6.20;2.03;;;;;;;13.26;100.00;100919.31;6210278;28;20653;-72
2023/10/12 03:06:55;;;;;;;7.87;2.67;;;;;;;13.13;100.00;100910.72;6175815;28;20230;-71
2023/10/12 03:10:24;;;;;;;2.83;2.00;;;;;;;13.12;100.00;100920.69;6177894;28;20237;-72
2023/10/12 03:13:55;;;;;;;11.00;2.77;;;;;;;13.14;100.00;100921.38;6189350;28;20225;-73
2023/10/12 03:17:16;;;;;;;5.13;2.43;;;;;;;13.12;100.00;100915.25;6197342;28;20244;-73
2023/10/12 03:20:37;;;;;;;5.10;3.00;;;;;;;13.06;100.00;100917.75;6199190;28;20642;-73
2023/10/12 03:24:03;;;;;;;6.27;2.97;;;;;;;13.18;100.00;100917.38;6196832;28;20233;-72
2023/10/12 03:27:23;;;;;;;4.70;2.80;;;;;;;13.26;100.00;100920.19;6196102;28;20303;-73
2023/10/12 03:30:52;;;;;;;6.67;2.60;;;;;;;13.05;100.00;100925.00;6194246;28;20237;-73
2023/10/12 03:34:30;;;;;;;3.13;2.37;;;;;;;13.21;100.00;100927.03;6197443;28;20229;-73
2023/10/12 03:38:00;;;;;;;8.87;2.10;;;;;;;13.08;100.00;100913.88;6181037;28;20225;-73
2023/10/12 03:45:23;;;;;;;10.83;2.53;;;;;;;13.05;100.00;100919.59;6160201;28;20232;-72
2023/10/12 03:49:04;;;;;;;7.47;2.77;;;;;;;13.08;100.00;100913.03;6197613;28;20259;-73
2023/10/12 03:52:30;;;;;;;5.43;1.93;;;;;;;13.11;100.00;100931.66;6192169;28;20249;-73
2023/10/12 03:55:56;;;;;;;3.73;1.53;;;;;;;13.09;100.00;100922.84;6194393;28;20225;-73
2023/10/12 03:59:25;;;;;;;7.23;2.23;;;;;;;13.15;100.00;100922.22;6198762;28;20237;-72
2023/10/12 04:02:54;;;;;;;5.57;2.60;;;;;;;12.93;100.00;100919.91;6196668;28;20261;-72
2023/10/12 04:06:23;;;;;;;7.33;2.83;;;;;;;12.88;100.00;100927.63;6172006;28;20237;-72
2023/10/12 04:09:44;;;;;;;8.10;3.33;;;;;;;12.97;100.00;100935.72;6214346;28;20236;-72
2023/10/12 04:13:07;;;;;;;4.20;1.77;;;;;;;13.02;100.00;100927.09;6202822;28;21201;-72
2023/10/12 04:16:40;;;;;;;7.30;2.67;;;;;;;12.91;100.00;100930.03;6204652;28;20241;-71
2023/10/12 04:20:13;;;;;;;4.03;2.30;;;;;;;12.94;100.00;100938.69;6218461;28;20627;-72
2023/10/12 04:24:24;;;;;;;8.23;2.33;;;;;;;12.91;100.00;100932.75;6206147;28;20275;-72
2023/10/12 04:27:38;;;;;;;6.73;3.27;;;;;;;12.92;100.00;100946.13;6196118;28;20509;-73
2023/10/12 04:34:49;;;;;;;3.63;1.93;;;;;;;13.03;100.00;100956.75;6197804;28;20335;-72
2023/10/12 04:38:23;;;;;;;5.80;2.40;;;;;;;12.96;100.00;100949.38;6187396;28;20234;-73
2023/10/12 04:41:56;;;;;;;4.43;3.33;;;;;;;12.97;100.00;100962.75;6176109;28;20234;-73
2023/10/12 04:45:23;;;;;;;7.00;3.33;;;;;;;12.93;100.00;100968.63;6178523;28;20222;-73
2023/10/12 04:48:44;;;;;;;5.90;2.37;;;;;;;12.95;100.00;100977.44;6190920;28;20221;-73
2023/10/12 04:52:15;;;;;;;5.40;2.77;;;;;;;13.00;100.00;100986.81;6181772;28;22551;-72
2023/10/12 04:55:36;;;;;;;7.53;2.27;;;;;;;13.00;100.00;100996.78;6174162;28;20233;-72
2023/10/12 04:58:57;;;;;;;5.03;2.53;;;;;;;13.07;100.00;100987.09;6187936;28;20244;-74
2023/10/12 05:02:28;;;;;;;5.03;2.37;;;;;;;13.11;100.00;101002.91;6171044;28;20976;-73
2023/10/12 05:06:04;;;;;;;7.10;2.83;;;;;;;13.06;100.00;101007.88;6180589;28;20255;-73
2023/10/12 05:09:26;;;;;;;6.03;2.43;;;;;;;13.04;100.00;101012.59;6192686;28;20225;-73
2023/10/12 05:12:47;;;;;;;5.70;2.67;;;;;;;12.96;100.00;101014.31;6192977;28;20733;-69
2023/10/12 05:16:08;;;;;;;7.97;3.03;;;;;;;12.99;100.00;101003.19;6201319;28;20606;-70
2023/10/12 05:19:29;;;;;;;6.37;3.40;;;;;;;13.01;100.00;101028.25;6188459;28;20230;-70
2023/10/12 05:22:50;;;;;;;6.93;2.87;;;;;;;13.07;100.00;101027.69;6173651;28;20505;-74
2023/10/12 05:26:14;;;;;;;8.23;2.33;;;;;;;13.18;100.00;101031.09;6196807;28;20233;-73
2023/10/12 05:29:38;;;;;;;4.27;3.10;;;;;;;13.20;100.00;101039.06;6199365;28;20317;-71
2023/10/12 05:33:04;;;;;;;4.47;2.20;;;;;;;13.23;100.00;101039.59;6178313;28;20616;-72
2023/10/12 05:36:28;;;;;;;10.87;3.47;;;;;;;13.28;100.00;101037.31;6193890;28;21135;-71
2023/10/12 05:39:51;;;;;;;6.93;2.10;;;;;;;13.14;100.00;101047.78;6201188;28;20237;-69
2023/10/12 05:43:21;;;;;;;3.53;2.57;;;;;;;13.20;100.00;101047.19;6203060;28;20522;-70
2023/10/12 05:46:45;;;;;;;3.80;1.93;;;;;;;13.17;100.00;101058.28;6184198;28;20670;-70
2023/10/12 05:50:06;;;;;;;7.90;2.63;;;;;;;13.09;100.00;101060.88;6185172;28;20236;-69
2023/10/12 05:53:29;;;;;;;10.00;3.17;;;;;;;13.19;100.00;101067.97;6195951;28;20244;-73
2023/10/12 05:56:51;;;;;;;5.70;2.93;;;;;;;13.11;100.00;101067.88;6198734;28;20234;-73
2023/10/12 06:00:34;;;;;;;6.23;1.90;;;;;;;13.22;100.00;101069.53;6205514;28;20241;-71
2023/10/12 06:03:56;;;;;;;4.10;2.60;;;;;;;13.16;100.00;101073.66;6184009;28;20223;-72
2023/10/12 06:07:17;;;;;;;7.00;2.30;;;;;;;13.10;100.00;101076.13;6199084;28;20245;-72
2023/10/12 06:10:41;;;;;;;6.57;2.70;;;;;;;13.03;100.00;101096.63;6204680;28;20229;-70
2023/10/12 06:14:05;;;;;;;9.97;3.37;;;;;;;12.92;100.00;101094.09;6201413;28;20226;-70
2023/10/12 06:17:31;;;;;;;4.70;2.30;;;;;;;12.90;100.00;101096.94;6183302;28;20321;-73
2023/10/12 06:20:58;;;;;;;6.07;3.03;;;;;;;13.13;100.00;101105.59;6200786;28;20229;-70
2023/10/12 06:24:33;;;;;;;2.37;1.30;;;;;;;13.12;100.00;101098.50;6194879;28;20237;-73
2023/10/12 06:27:54;;;;;;;3.90;2.27;;;;;;;13.27;100.00;101116.81;6202283;28;20323;-73
2023/10/12 06:31:15;;;;;;;7.27;2.50;;;;;;;13.13;100.00;101124.56;6203810;28;20229;-72
2023/10/12 06:34:37;;;;;;;3.27;1.87;;;;;;;13.18;100.00;101131.25;6198818;28;21188;-72
2023/10/12 06:45:20;;;;;;;9.70;3.17;;;;;;;13.33;100.00;101164.97;6219984;28;20569;-71
2023/10/12 06:48:44;;;;;;;7.57;2.70;;;;;;;13.35;100.00;101162.13;6200042;28;20232;-74
2023/10/12 06:52:13;;;;;;;8.57;2.10;;;;;;;13.39;100.00;101168.97;6182842;28;20600;-73
2023/10/12 06:55:34;;;;;;;3.80;2.37;;;;;;;13.47;100.00;101166.38;6176312;28;20257;-72
2023/10/12 07:02:34;;;;;;;7.30;2.53;;;;;;;13.56;100.00;101177.16;6204172;28;20503;-73
2023/10/12 07:05:54;;;;;;;10.47;3.30;;;;;;;13.56;100.00;101184.41;6181743;28;20237;-73
2023/10/12 07:09:27;;;;;;;4.10;2.40;;;;;;;13.64;100.00;101187.25;6197796;28;20531;-70
2023/10/12 07:12:48;;;;;;;6.83;2.10;;;;;;;13.60;100.00;101183.16;6204682;28;20282;-70
2023/10/12 07:16:09;;;;;;;7.17;2.77;;;;;;;13.57;100.00;101181.59;6206886;28;20233;-72
2023/10/12 07:19:30;;;;;;;4.67;2.17;;;;;;;13.60;100.00;101194.81;6204666;28;20329;-74
2023/10/12 07:22:51;;;;;;;5.30;1.80;;;;;;;13.61;100.00;101204.66;6184380;28;20599;-73
2023/10/12 07:26:14;;;;;;;4.63;2.33;;;;;;;13.58;100.00;101202.22;6181070;28;20238;-71
2023/10/12 07:29:37;;;;;;;5.73;1.73;;;;;;;13.63;100.00;101216.19;6205635;28;20221;-71
2023/10/12 07:32:59;;;;;;;6.13;2.23;;;;;;;13.71;100.00;101204.63;6209255;28;20240;-71
2023/10/12 07:36:36;;;;;;;7.30;2.63;;;;;;;13.74;100.00;101209.75;6180707;28;20269;-70
2023/10/12 07:39:57;;;;;;;3.73;2.30;;;;;;;13.73;100.00;101212.59;6200583;28;20228;-73
2023/10/12 07:43:20;;;;;;;6.83;2.53;;;;;;;13.85;100.00;101206.84;6190708;28;22737;-73
2023/10/12 07:46:42;;;;;;;3.07;2.53;;;;;;;13.88;100.00;101211.97;6206654;28;20226;-72
2023/10/12 07:50:09;;;;;;;6.10;2.37;;;;;;;13.96;100.00;101200.38;6196002;28;20242;-72
2023/10/12 07:53:37;;;;;;;4.33;2.03;;;;;;;14.11;100.00;101207.00;6208105;28;20312;-70
2023/10/12 07:57:01;;;;;;;10.87;2.57;;;;;;;14.17;100.00;101206.41;6204369;28;20317;-68
2023/10/12 08:00:35;;;;;;;2.27;1.63;;;;;;;14.52;100.00;101208.38;6179322;28;20701;-72
2023/10/12 08:03:59;;;;;;;3.93;2.60;;;;;;;14.66;100.00;101216.84;6213066;28;20267;-69
2023/10/12 08:07:26;;;;;;;5.93;1.80;;;;;;;14.93;100.00;101213.19;6204013;28;20628;-69
2023/10/12 08:10:56;;;;;;;3.10;1.70;;;;;;;15.27;100.00;101229.63;6215600;28;20233;-70
2023/10/12 08:14:39;;;;;;;10.83;2.47;;;;;;;15.05;100.00;101222.81;6196697;28;20320;-73
2023/10/12 08:18:52;;;;;;;9.30;2.57;;;;;;;14.92;100.00;101244.06;6203023;28;20253;-73
2023/10/12 08:21:43;;;;;;;6.93;2.50;;;;;;;15.01;100.00;101246.72;6203410;28;20229;-74
2023/10/12 08:25:04;;;;;;;3.43;1.83;;;;;;;14.80;100.00;101239.88;6194843;28;20620;-72
2023/10/12 08:28:27;;;;;;;6.33;1.90;;;;;;;14.75;100.00;101245.75;6206938;28;20244;-74
2023/10/12 08:32:03;;;;;;;5.73;2.70;;;;;;;14.75;100.00;101251.19;6208128;28;20237;-73
2023/10/12 08:36:23;;;;;;;8.97;2.17;;;;;;;15.03;100.00;101254.69;6201355;28;20312;-70
2023/10/12 08:39:17;;;;;;;7.23;3.17;;;;;;;15.42;100.00;101249.75;6184349;28;20230;-74
2023/10/12 08:42:55;;;;;;;4.63;2.43;;;;;;;15.37;100.00;101250.25;6211522;28;20634;-72
2023/10/12 08:50:01;;;;;;;7.43;2.43;;;;;;;15.21;100.00;101272.69;6205341;28;20233;-71
2023/10/12 08:53:27;;;;;;;8.30;2.30;;;;;;;15.21;100.00;101279.97;6211590;28;20311;-71
2023/10/12 08:56:49;;;;;;;5.80;2.27;;;;;;;15.48;100.00;101287.22;6209117;28;20236;-70
2023/10/12 09:00:24;;;;;;;3.80;2.07;;;;;;;15.75;100.00;101281.66;6192753;28;20237;-71
2023/10/12 09:03:45;;;;;;;8.17;2.67;;;;;;;16.21;100.00;101281.22;6205336;28;20701;-70
2023/10/12 09:07:06;;;;;;;8.73;2.23;;;;;;;16.13;100.00;101296.63;6192246;28;20229;-71
2023/10/12 09:10:36;;;;;;;4.20;1.90;;;;;;;16.21;100.00;101291.25;6210194;28;20523;-71
2023/10/12 09:13:58;;;;;;;6.70;2.90;;;;;;;16.12;100.00;101290.38;6212276;28;20245;-71
2023/10/12 09:17:30;;;;;;;5.33;2.10;;;;;;;15.92;100.00;101297.03;6184849;28;20221;-71
2023/10/12 09:21:06;;;;;;;4.23;2.20;;;;;;;15.95;100.00;101311.19;6188792;28;20799;-71
2023/10/12 09:24:29;;;;;;;4.67;2.33;;;;;;;16.22;100.00;101309.28;6185503;28;21958;-71
2023/10/12 09:27:55;;;;;;;4.90;2.20;;;;;;;16.16;100.00;101313.50;6196546;28;20658;-70
2023/10/12 09:31:53;;;;;;;3.93;2.07;;;;;;;16.54;100.00;101312.19;6204252;28;20311;-71
2023/10/12 09:35:13;;;;;;;4.20;2.37;;;;;;;17.01;100.00;101318.81;6192447;28;20229;-71
2023/10/12 09:38:38;;;;;;;8.27;4.20;;;;;;;17.22;100.00;101318.34;6208735;28;20228;-71
2023/10/12 09:42:09;;;;;;;5.40;3.00;;;;;;;17.51;100.00;101319.59;6213689;28;20506;-71
2023/10/12 09:45:35;;;;;;;5.45;1.80;;;;;;;17.16;100.00;101324.47;6209679;28;20228;-71
2023/10/12 09:49:02;;;;;;;4.93;2.13;;;;;;;17.18;100.00;101330.59;6208891;28;20225;-72
2023/10/12 09:52:25;;;;;;;3.70;1.65;;;;;;;17.13;96.02;101330.22;6189642;28;20587;-71
2023/10/12 09:56:02;;;;;;;3.75;2.03;;;;;;;18.23;94.53;101326.00;6199487;28;20229;-70
2023/10/12 09:59:23;;;;;;;4.03;2.25;;;;;;;19.21;88.37;101324.53;6211713;28;20327;-72
2023/10/12 10:02:49;;;;;;;3.60;1.67;;;;;;;19.89;80.96;101320.75;6210931;28;20237;-71
2023/10/12 10:06:20;;;;;;;5.38;1.52;;;;;;;20.99;75.19;101332.66;6208142;28;20237;-71
2023/10/12 10:09:46;;;;;;;4.93;1.58;;;;;;;22.89;67.47;101325.03;6198397;28;20238;-71
2023/10/12 10:13:10;;;;;;;5.53;1.42;;;;;;;23.08;63.06;101333.56;6200170;28;20257;-71
2023/10/12 10:16:46;;;;;;;3.90;2.15;;;;;;;20.35;70.16;101329.72;6196898;28;20324;-71
2023/10/12 10:20:45;;;;;;;5.35;2.85;;;;;;;20.07;75.81;101336.00;6188899;28;20229;-71
2023/10/12 10:24:02;;;;;;;5.25;1.85;;;;;;;19.14;75.73;101330.72;6183094;28;20226;-71
2023/10/12 10:27:33;;;;;;;4.78;2.03;;;;;;;18.96;77.20;101346.53;6202666;28;20706;-71
2023/10/12 10:30:59;;;;;;;3.90;2.20;;;;;;;20.33;72.44;101340.00;6208341;28;20221;-71
2023/10/12 10:34:23;;;;;;;3.30;1.98;;;;;;;21.74;65.29;101335.81;6212583;28;20503;-71
2023/10/12 10:37:58;;;;;;;4.68;2.20;;;;;;;21.74;64.35;101339.41;6212472;28;20588;-71
2023/10/12 10:41:22;;;;;;;2.47;1.67;;;;;;;22.64;60.56;101334.84;6213526;28;20669;-72
2023/10/12 10:44:45;;;;;;;7.28;1.60;;;;;;;22.26;57.60;101331.63;6201458;28;20541;-71
2023/10/12 10:48:06;;;;;;;7.65;2.03;;;;;;;24.09;54.49;101317.69;6182234;28;20241;-69
2023/10/12 10:51:28;;;;;;;5.32;2.15;;;;;;;24.88;53.11;101318.34;6188089;28;20264;-72
2023/10/12 10:55:00;;;;;;;7.32;1.70;;;;;;;22.40;53.00;101323.47;6207139;28;20237;-73
2023/10/12 10:58:22;;;;;;;4.57;1.90;;;;;;;24.93;49.16;101314.94;6191676;28;20241;-73
2023/10/12 11:01:48;;;;;;;5.10;2.25;;;;;;;25.53;47.30;101316.31;6185635;28;20226;-72
2023/10/12 11:05:19;;;;;;;4.93;1.52;;;;;;;23.69;50.42;101324.22;6205730;28;20529;-71
2023/10/12 11:08:40;;;;;;;5.78;2.08;;;;;;;23.20;49.32;101315.41;6202089;28;20232;-71
2023/10/12 11:12:03;;;;;;;2.20;1.63;;;;;;;22.18;52.43;101319.94;6203830;28;20319;-73
2023/10/12 11:15:24;;;;;;;4.25;1.85;;;;;;;21.06;56.39;101322.66;6188025;28;20294;-74
2023/10/12 11:18:46;;;;;;;4.38;1.83;;;;;;;21.19;54.93;101311.84;6210346;28;20227;-72
2023/10/12 11:22:13;;;;;;;6.30;1.63;;;;;;;21.54;55.57;101324.66;6447380;22;20233;-73
2023/10/12 11:25:39;;;;;;;3.38;2.53;;;;;;;21.93;56.79;101319.56;6159169;28;20226;-71
2023/10/12 11:29:10;;;;;;;5.57;2.25;;;;;;;21.50;55.91;101317.88;6157777;28;20242;-70
2023/10/12 11:32:33;;;;;;;2.10;1.35;;;;;;;23.00;51.79;101324.44;6151328;28;20226;-72
2023/10/12 11:36:00;;;;;;;3.60;1.63;;;;;;;21.18;54.60;101323.84;6162058;28;20230;-71
2023/10/12 11:39:21;;;;;;;4.80;1.73;;;;;;;20.43;61.32;101315.94;6163408;28;20246;-71
2023/10/12 11:42:52;;;;;;;3.28;1.70;;;;;;;18.54;65.16;101324.22;6157630;28;20512;-72
2023/10/12 11:46:15;;;;;;;4.03;1.83;;;;;;;20.25;63.29;101315.47;6152516;28;20647;-72
2023/10/12 11:49:48;;;;;;;4.65;2.05;;;;;;;21.14;59.24;101322.53;6155089;28;20226;-72
2023/10/12 11:53:09;;;;;;;4.70;1.55;;;;;;;19.71;62.86;101319.41;6153580;28;21783;-74
2023/10/12 11:56:32;;;;;;;6.05;2.08;;;;;;;19.05;64.71;101326.34;6155485;28;20321;-69
2023/10/12 11:59:53;;;;;;;4.65;2.03;;;;;;;20.19;64.12;101326.28;6154875;28;20351;-70
2023/10/12 12:03:17;;;;;;;5.93;2.13;;;;;;;21.88;56.16;101321.22;6157997;28;20544;-74
2023/10/12 12:06:39;;;;;;;3.25;1.80;;;;;;;25.13;47.11;101322.03;6160580;28;20241;-71
2023/10/12 12:10:01;;;;;;;5.43;2.13;;;;;;;24.44;48.22;101318.25;6156354;28;20243;-70
2023/10/12 12:13:23;;;;;;;5.20;1.55;;;;;;;27.74;40.21;101325.09;6153617;28;20342;-75
2023/10/12 12:16:44;;;;;;;4.97;1.90;;;;;;;28.47;38.82;101321.66;6151223;28;20227;-69
2023/10/12 12:20:08;;;;;;;3.78;1.88;;;;;;;26.21;39.30;101334.69;6145861;28;20697;-72
2023/10/12 12:23:34;;;;;;;3.88;1.92;;;;;;;25.99;40.29;101327.84;6161959;28;20233;-72
2023/10/12 12:26:55;;;;;;;6.70;1.98;;;;;;;27.45;39.17;101322.13;6153261;28;20230;-73
2023/10/12 12:30:29;;;;;;;4.40;2.38;;;;;;;23.30;46.92;101327.69;6155039;28;20229;-70
2023/10/12 12:33:52;;;;;;;7.18;1.77;;;;;;;22.89;46.23;101326.94;6150863;28;20683;-71
2023/10/12 12:37:17;;;;;;;2.55;1.83;;;;;;;22.48;48.92;101335.16;6158271;28;20235;-73
2023/10/12 12:40:39;;;;;;;3.55;1.35;;;;;;;20.86;54.59;101322.38;6163491;28;20226;-72
2023/10/12 12:44:00;;;;;;;4.63;1.75;;;;;;;20.19;56.83;101318.91;6161175;28;20243;-73
2023/10/12 12:47:25;;;;;;;3.63;1.52;;;;;;;20.68;53.72;101317.31;6158692;28;20616;-74
2023/10/12 12:50:47;;;;;;;3.03;1.80;;;;;;;20.22;55.35;101334.13;6165258;28;20238;-71
2023/10/12 12:54:11;;;;;;;4.47;1.60;;;;;;;18.42;62.01;101338.38;6157752;28;20227;-71
2023/10/12 12:57:32;;;;;;;8.52;2.35;;;;;;;19.44;60.96;101329.00;6158813;28;20219;-70
2023/10/12 13:00:53;;;;;;;2.22;1.38;;;;;;;20.01;58.52;101328.50;6159100;28;20243;-70
2023/10/12 13:04:14;;;;;;;2.50;1.52;;;;;;;20.02;59.06;101325.59;6162371;28;21192;-72
2023/10/12 13:07:35;;;;;;;3.40;1.52;;;;;;;19.82;60.96;101325.25;6170130;28;20236;-72
2023/10/12 13:10:57;;;;;;;4.15;1.42;;;;;;;19.93;59.82;101318.50;6170921;28;20324;-72
2023/10/12 13:14:19;;;;;;;2.88;1.35;;;;;;;18.74;62.68;101325.47;6163224;28;20231;-69
2023/10/12 13:17:40;;;;;;;7.25;1.98;;;;;;;18.53;62.93;101319.75;6158402;28;22239;-73
2023/10/12 13:21:06;;;;;;;8.60;1.73;;;;;;;18.38;65.94;101325.06;6159963;28;20231;-72
2023/10/12 13:24:28;;;;;;;2.30;1.50;;;;;;;18.37;66.77;101325.25;6156798;28;20235;-71
2023/10/12 13:27:51;;;;;;;6.93;2.17;;;;;;;18.31;68.15;101324.06;6161734;28;20230;-74
2023/10/12 13:31:12;;;;;;;4.28;1.83;;;;;;;18.38;69.20;101324.22;6154548;28;20691;-73
2023/10/12 13:34:33;;;;;;;8.38;2.58;;;;;;;18.07;67.06;101328.72;6164133;28;20234;-70
2023/10/12 13:37:54;;;;;;;3.90;1.48;;;;;;;19.31;63.86;101325.16;6159511;28;20882;-73
2023/10/12 13:41:15;;;;;;;2.80;1.52;;;;;;;20.79;58.15;101328.84;6154408;28;20250;-78
2023/10/12 13:44:39;;;;;;;5.50;2.05;;;;;;;20.93;54.39;101314.25;6159719;28;20250;-72
2023/10/12 13:48:00;;;;;;;4.07;1.67;;;;;;;19.21;58.36;101319.06;6161333;28;20226;-70
2023/10/12 13:51:31;;;;;;;2.75;1.40;;;;;;;19.98;57.20;101312.47;6154554;28;20231;-73
2023/10/12 13:54:55;;;;;;;5.40;1.73;;;;;;;22.00;51.81;101306.72;6159997;28;20234;-72
2023/10/12 13:58:16;;;;;;;3.70;1.40;;;;;;;24.07;46.30;101302.41;6157767;28;20226;-73
2023/10/12 14:01:39;;;;;;;2.38;1.08;;;;;;;25.31;43.37;101302.81;6157112;28;21416;-72
2023/10/12 14:05:00;;;;;;;2.92;1.77;;;;;;;23.94;44.45;101292.22;6168129;28;20238;-72
2023/10/12 14:08:21;;;;;;;6.00;1.40;;;;;;;25.05;43.30;101291.09;6151175;28;20226;-74
2023/10/12 14:11:42;;;;;;;5.20;2.28;;;;;;;24.50;44.21;101285.13;6156742;28;20321;-73
2023/10/12 14:15:03;;;;;;;1.98;1.30;;;;;;;25.04;44.43;101289.38;6155366;28;20246;-72
2023/10/12 14:18:28;;;;;;;6.22;1.40;;;;;;;23.94;45.52;101299.63;6128458;28;20265;-72
2023/10/12 14:21:51;;;;;;;4.72;1.80;;;;;;;21.34;50.92;101294.28;6162613;28;20605;-73
2023/10/12 14:25:17;;;;;;;3.67;1.25;;;;;;;21.11;51.66;101299.09;6165900;28;20230;-72
2023/10/12 14:28:41;;;;;;;6.53;1.85;;;;;;;20.58;53.36;101292.13;6155585;28;20574;-72
2023/10/12 14:32:02;;;;;;;1.95;0.98;;;;;;;21.56;51.27;101300.63;6168352;28;20616;-73
2023/10/12 14:35:27;;;;;;;7.00;2.38;;;;;;;20.66;52.93;101291.16;6169630;28;20237;-73
2023/10/12 14:38:48;;;;;;;4.35;1.42;;;;;;;20.75;54.95;101292.75;6161119;28;20226;-73
2023/10/12 14:42:10;;;;;;;7.35;1.60;;;;;;;19.72;55.97;101291.84;6157538;28;20243;-73
2023/10/12 14:45:31;;;;;;;3.22;1.45;;;;;;;19.61;58.07;101296.91;6160672;28;20273;-72
2023/10/12 14:48:52;;;;;;;7.72;2.38;;;;;;;20.16;56.90;101291.03;6156758;28;20935;-73
2023/10/12 14:52:17;;;;;;;2.92;1.23;;;;;;;19.25;60.03;101291.19;6161448;28;20313;-72
2023/10/12 14:55:40;;;;;;;3.15;1.90;;;;;;;19.81;60.42;101289.88;6158005;28;20306;-73
2023/10/12 14:59:01;;;;;;;4.80;1.38;;;;;;;19.43;59.70;101310.03;6163070;28;20223;-73
2023/10/12 15:02:22;;;;;;;4.90;4.47;;;;;;;19.10;63.90;101310.25;6156448;28;20238;-73
2023/10/12 15:05:43;;;;;;;6.22;1.80;;;;;;;18.94;63.02;101312.25;6173692;28;20606;-72
2023/10/12 15:09:10;;;;;;;5.50;1.75;;;;;;;18.75;64.47;101315.41;6159480;28;20333;-72
2023/10/12 15:12:32;;;;;;;4.13;1.70;;;;;;;18.43;66.96;101315.50;6162561;28;20222;-73
2023/10/12 15:15:54;;;;;;;4.75;2.83;;;;;;;18.15;68.80;101298.69;6162227;28;20258;-73
2023/10/12 15:19:15;;;;;;;2.95;1.63;;;;;;;17.60;69.45;101304.09;6164056;28;20496;-74
2023/10/12 15:22:36;;;;;;;4.78;1.83;;;;;;;17.47;70.31;101296.38;6160189;28;20229;-74
2023/10/12 15:26:01;;;;;;;8.43;1.88;;;;;;;17.26;72.19;101295.16;6156610;28;20233;-72
2023/10/12 15:29:22;;;;;;;4.38;2.03;;;;;;;17.23;73.10;101277.28;6174205;28;20238;-73
2023/10/12 15:32:43;;;;;;;5.05;1.83;;;;;;;17.18;73.55;101274.22;6156091;28;20227;-73
2023/10/12 15:36:07;;;;;;;3.55;1.63;;;;;;;17.20;73.77;101280.38;6149651;28;20775;-73
2023/10/12 15:39:29;;;;;;;4.47;2.05;;;;;;;17.17;76.23;101269.78;6144551;28;20238;-73
2023/10/12 15:42:53;;;;;;;11.15;2.00;;;;;;;17.35;75.81;101258.75;6151357;28;20230;-74
2023/10/12 15:46:14;;;;;;;4.68;2.50;;;;;;;17.35;75.50;101267.78;6162959;28;20266;-74
2023/10/12 15:49:35;;;;;;;4.82;3.42;;;;;;;17.31;78.24;101266.38;6155588;28;20234;-69
2023/10/12 15:52:56;;;;;;;5.53;3.20;;;;;;;17.49;76.69;101279.84;6158781;28;20235;-73
2023/10/12 15:56:17;;;;;;;8.45;2.40;;;;;;;17.14;76.29;101281.03;6154084;28;20238;-73
2023/10/12 15:59:40;;;;;;;6.72;2.25;;;;;;;17.31;76.36;101276.47;6152721;28;20227;-74
2023/10/12 16:03:05;;;;;;;5.10;2.58;;;;;;;17.16;78.01;101273.53;6153802;28;20675;-74
2023/10/12 16:06:26;;;;;;;5.30;2.17;;;;;;;17.08;76.83;101287.16;6155229;28;20718;-73
2023/10/12 16:09:49;;;;;;;8.00;3.00;;;;;;;16.69;77.77;101291.47;6146154;28;20235;-73